メインページ
METAR-TAF:

METAR-TAF

空港 :

エカテリンブルク, ロシア

コルツォヴォ国際空港

緯度: 56-50N, 経度: 060-38E, 海抜: 237m

現時点の気象観測

当レポートは18分前の12:00(UTC)に作成
南西の風 10kt
気温 -12°C
湿度 56%
気圧 1019 hPa
視程10km以上
高度3300ftの雲は散在している

METAR: USSS 241200Z 23005MPS 9999 SCT033 M12/M19 Q1019 R26R/420140 TEMPO 25008MPS RMK QFE744/0992

時間: 17:18 (12:18 UTC)

予報

当レポートは1時間25分前の10:53(UTC)に作成
予報は24日の 12時(UTC)から 25日の 12時(UTC)まで有効
西/南西の風 10kt
視程10km以上
高度1500ftの千切れ雲あり
高度2000ftの雲は散在している, 積乱雲.
24日の 12時(UTC)から 24日の 21時(UTC)まで一時的に
視程: 3100m
高度1100ftの千切れ雲あり
小雪, 靄

TAF: USSS 241053Z 2412/2512 24005MPS 9999 BKN015 SCT020CB TEMPO 2412/2421 3100 -SN BR BKN011

4,000以上の空港の気象観測と天気予報(METAR報とTAF報)

利用可能な観測所は地図上に黄色い丸と赤い丸で示す。

丸の上にカーソルを重ねると観測所名を参照できる。

次にクリックすると気象観測と天気予報を参照できる。

マップの切り替え:黒色「×」印の緑ボタンをクリックして拡大、「-」印の緑ボタンをクリックして縮小、緑色の三角印をクリックして隣りの地図に切り替え


METAR-TAF: